Time;durP1;ratioP1;P1;durP2;ratioP2;P2;SDS_P1;SDS_P2;PMS_P1;PMS_P2;Temp;Humidity;BMP_temperature;BMP_pressure;BME280_temperature;BME280_humidity;BME280_pressure;Samples;Min_cycle;Max_cycle;Signal;HPM_P1;HPM_P2
2022/04/23 00:01:31;;;;;;;21.52;17.98;;;;;;;;;;5020499;28;20553;-60
2022/04/23 00:03:57;;;;;;;24.00;19.58;;;;;;;;;;5020797;28;20053;-60
2022/04/23 00:06:23;;;;;;;23.25;18.52;;;;;;;;;;5019933;28;20431;-60
2022/04/23 00:08:49;;;;;;;23.50;19.52;;;;;;;;;;5027232;28;20445;-60
2022/04/23 00:11:15;;;;;;;22.40;18.98;;;;;;;;;;5025710;28;20464;-61
2022/04/23 00:13:41;;;;;;;22.75;18.73;;;;;;;;;;5023025;28;20103;-60
2022/04/23 00:16:07;;;;;;;21.13;18.60;;;;;;;;;;5022285;28;20144;-59
2022/04/23 00:18:34;;;;;;;24.40;19.38;;;;;;;;;;5020038;28;20029;-60
2022/04/23 00:21:00;;;;;;;22.00;18.23;;;;;;;;;;5022077;28;20020;-59
2022/04/23 00:23:27;;;;;;;21.50;17.80;;;;;;;;;;5028303;28;20036;-59
2022/04/23 00:25:54;;;;;;;25.15;18.45;;;;;;;;;;5022141;28;20041;-61
2022/04/23 00:28:21;;;;;;;22.80;17.83;;;;;;;;;;5022892;28;20572;-61
2022/04/23 00:30:47;;;;;;;21.33;18.35;;;;;;;;;;5021645;28;20111;-61
2022/04/23 00:33:13;;;;;;;24.35;18.08;;;;;;;;;;5027126;28;20021;-61
2022/04/23 00:35:39;;;;;;;22.90;17.67;;;;;;;;;;5024352;28;20033;-60
2022/04/23 00:38:07;;;;;;;23.80;18.48;;;;;;;;;;5021734;28;20017;-61
2022/04/23 00:40:33;;;;;;;22.38;18.65;;;;;;;;;;5024665;28;20052;-61
2022/04/23 00:43:00;;;;;;;22.40;17.52;;;;;;;;;;5026502;28;20684;-61
2022/04/23 00:45:27;;;;;;;21.98;17.52;;;;;;;;;;5015965;28;20400;-61
2022/04/23 00:47:53;;;;;;;21.30;17.98;;;;;;;;;;5015333;28;20223;-61
2022/04/23 00:50:21;;;;;;;20.10;17.23;;;;;;;;;;5023939;28;20097;-60
2022/04/23 00:53:03;;;;;;;20.95;17.15;;;;;;;;;;5021323;28;20133;-60
2022/04/23 00:55:31;;;;;;;21.70;17.65;;;;;;;;;;5016721;28;20033;-61
2022/04/23 00:57:58;;;;;;;19.45;17.08;;;;;;;;;;5036965;28;20033;-61
2022/04/23 01:00:25;;;;;;;23.00;18.77;;;;;;;;;;5023966;28;20417;-61
2022/04/23 01:02:54;;;;;;;19.15;17.05;;;;;;;;;;5027209;28;20029;-59
2022/04/23 01:05:23;;;;;;;21.20;17.98;;;;;;;;;;5026003;28;20373;-61
2022/04/23 01:07:50;;;;;;;22.00;17.75;;;;;;;;;;5028651;28;20540;-59
2022/04/23 01:10:16;;;;;;;23.02;18.52;;;;;;;;;;5025430;28;20425;-60
2022/04/23 01:12:44;;;;;;;21.52;18.10;;;;;;;;;;5023645;28;20028;-60
2022/04/23 01:15:11;;;;;;;23.52;18.77;;;;;;;;;;5024607;28;20151;-59
2022/04/23 01:17:38;;;;;;;22.80;19.17;;;;;;;;;;5027688;28;20024;-61
2022/04/23 01:20:08;;;;;;;22.30;19.10;;;;;;;;;;5025191;28;20057;-59
2022/04/23 01:22:36;;;;;;;21.80;18.10;;;;;;;;;;5025040;28;20032;-61
2022/04/23 01:25:05;;;;;;;22.90;19.63;;;;;;;;;;5028507;28;20459;-61
2022/04/23 01:27:31;;;;;;;24.38;18.90;;;;;;;;;;5025006;28;20017;-60
2022/04/23 01:29:57;;;;;;;24.00;19.00;;;;;;;;;;5030037;28;20596;-61
2022/04/23 01:32:23;;;;;;;22.85;18.40;;;;;;;;;;5025527;28;20747;-60
2022/04/23 01:34:49;;;;;;;21.15;18.75;;;;;;;;;;5030175;28;20023;-60
2022/04/23 01:37:17;;;;;;;22.73;18.42;;;;;;;;;;5023899;28;20520;-61
2022/04/23 01:39:44;;;;;;;23.30;19.58;;;;;;;;;;5018563;28;20729;-60
2022/04/23 01:42:10;;;;;;;24.73;19.40;;;;;;;;;;5019222;28;20385;-61
2022/04/23 01:44:36;;;;;;;25.02;19.35;;;;;;;;;;5029234;28;20481;-61
2022/04/23 01:47:03;;;;;;;22.98;19.60;;;;;;;;;;5026096;28;20428;-60
2022/04/23 01:49:29;;;;;;;24.23;19.00;;;;;;;;;;5027428;28;20406;-58
2022/04/23 01:51:55;;;;;;;25.02;19.52;;;;;;;;;;5024879;28;20481;-60
2022/04/23 01:54:21;;;;;;;23.95;19.83;;;;;;;;;;5023818;28;20033;-59
2022/04/23 01:56:47;;;;;;;24.33;19.02;;;;;;;;;;5027456;28;20139;-60
2022/04/23 01:59:13;;;;;;;23.73;18.83;;;;;;;;;;5019942;28;20118;-59
2022/04/23 02:01:41;;;;;;;22.77;19.10;;;;;;;;;;5028067;28;20033;-61
2022/04/23 02:04:07;;;;;;;23.17;19.00;;;;;;;;;;5024245;28;20048;-60
2022/04/23 02:06:36;;;;;;;23.83;19.05;;;;;;;;;;5024895;28;20032;-59
2022/04/23 02:09:03;;;;;;;23.80;19.10;;;;;;;;;;5023767;28;20296;-59
2022/04/23 02:11:29;;;;;;;23.90;18.65;;;;;;;;;;5022986;28;20080;-61
2022/04/23 02:13:55;;;;;;;22.33;18.55;;;;;;;;;;5026871;28;20038;-60
2022/04/23 02:16:21;;;;;;;22.33;19.02;;;;;;;;;;5024227;28;20021;-59
2022/04/23 02:18:47;;;;;;;23.98;20.17;;;;;;;;;;5024161;28;20031;-61
2022/04/23 02:21:13;;;;;;;23.65;19.25;;;;;;;;;;5021816;28;20025;-61
2022/04/23 02:23:39;;;;;;;25.17;19.48;;;;;;;;;;5025219;28;20029;-59
2022/04/23 02:26:05;;;;;;;24.38;20.95;;;;;;;;;;5022201;28;20037;-61
2022/04/23 02:28:32;;;;;;;24.73;20.80;;;;;;;;;;5026127;28;20064;-59
2022/04/23 02:30:58;;;;;;;25.73;21.17;;;;;;;;;;5023290;28;20025;-58
2022/04/23 02:33:24;;;;;;;26.38;21.70;;;;;;;;;;5024046;28;20043;-60
2022/04/23 02:35:50;;;;;;;27.58;22.50;;;;;;;;;;5023656;28;20117;-59
2022/04/23 02:38:17;;;;;;;26.45;21.15;;;;;;;;;;5024862;28;20018;-60
2022/04/23 02:40:43;;;;;;;24.80;21.98;;;;;;;;;;5028854;28;20298;-61
2022/04/23 02:43:12;;;;;;;29.23;23.33;;;;;;;;;;5022959;28;20593;-59
2022/04/23 02:45:38;;;;;;;28.42;24.13;;;;;;;;;;5026405;28;20103;-61
2022/04/23 02:48:04;;;;;;;29.35;23.48;;;;;;;;;;5023683;28;20033;-61
2022/04/23 02:50:37;;;;;;;30.02;24.63;;;;;;;;;;5027347;28;20037;-59
2022/04/23 02:53:03;;;;;;;30.77;25.57;;;;;;;;;;5027839;28;20041;-60
2022/04/23 02:55:32;;;;;;;33.83;26.08;;;;;;;;;;5023552;28;20084;-61
2022/04/23 02:58:07;;;;;;;31.95;26.65;;;;;;;;;;5028933;28;20040;-60
2022/04/23 03:00:33;;;;;;;34.85;26.90;;;;;;;;;;5021455;28;20050;-59
2022/04/23 03:02:59;;;;;;;34.83;27.70;;;;;;;;;;5027358;28;20017;-59
2022/04/23 03:05:26;;;;;;;38.13;28.50;;;;;;;;;;5022581;28;20037;-61
2022/04/23 03:07:53;;;;;;;35.90;28.38;;;;;;;;;;5028004;28;20546;-60
2022/04/23 03:10:19;;;;;;;35.13;28.50;;;;;;;;;;5023921;28;20378;-60
2022/04/23 03:12:45;;;;;;;36.22;29.38;;;;;;;;;;5026144;28;20163;-61
2022/04/23 03:15:16;;;;;;;36.45;29.63;;;;;;;;;;5027119;28;20458;-60
2022/04/23 03:17:43;;;;;;;41.65;30.48;;;;;;;;;;5023392;28;20048;-59
2022/04/23 03:20:09;;;;;;;39.25;32.15;;;;;;;;;;5020066;28;20493;-59
2022/04/23 03:22:36;;;;;;;34.80;30.15;;;;;;;;;;5023988;28;20059;-58
2022/04/23 03:25:02;;;;;;;38.28;30.13;;;;;;;;;;5022595;28;20381;-61
2022/04/23 03:27:28;;;;;;;41.35;30.58;;;;;;;;;;5022035;28;20489;-61
2022/04/23 03:29:54;;;;;;;38.15;30.77;;;;;;;;;;5029312;28;20060;-59
2022/04/23 03:32:20;;;;;;;40.80;31.17;;;;;;;;;;5022693;28;20424;-62
2022/04/23 03:34:46;;;;;;;39.47;30.40;;;;;;;;;;5023345;28;20532;-61
2022/04/23 03:37:12;;;;;;;38.22;31.75;;;;;;;;;;5021657;28;20133;-59
2022/04/23 03:39:38;;;;;;;40.75;31.58;;;;;;;;;;5020901;28;20026;-60
2022/04/23 03:42:05;;;;;;;39.05;31.05;;;;;;;;;;5024530;28;20029;-61
2022/04/23 03:44:31;;;;;;;37.65;32.08;;;;;;;;;;5023952;28;20026;-61
2022/04/23 03:46:58;;;;;;;41.95;31.85;;;;;;;;;;5024487;28;20025;-61
2022/04/23 03:49:24;;;;;;;40.72;30.98;;;;;;;;;;5021545;28;20083;-60
2022/04/23 03:51:51;;;;;;;39.95;31.55;;;;;;;;;;5023735;28;20064;-59
2022/04/23 03:54:17;;;;;;;37.72;31.60;;;;;;;;;;5022285;28;20068;-61
2022/04/23 03:56:43;;;;;;;38.78;32.22;;;;;;;;;;5024886;28;20068;-61
2022/04/23 03:59:09;;;;;;;36.78;32.25;;;;;;;;;;5020774;28;20021;-61
2022/04/23 04:01:35;;;;;;;40.70;33.40;;;;;;;;;;5022177;28;20060;-59
2022/04/23 04:04:01;;;;;;;39.38;32.45;;;;;;;;;;5026555;28;20399;-60
2022/04/23 04:06:28;;;;;;;39.97;32.97;;;;;;;;;;5023118;28;20701;-61
2022/04/23 04:08:55;;;;;;;39.97;32.25;;;;;;;;;;5028852;28;20648;-62
2022/04/23 04:11:21;;;;;;;39.47;32.10;;;;;;;;;;5020454;28;20037;-60
2022/04/23 04:13:47;;;;;;;40.63;33.22;;;;;;;;;;5037531;28;20419;-62
2022/04/23 04:16:14;;;;;;;38.63;32.03;;;;;;;;;;5022598;28;20073;-59
2022/04/23 04:18:40;;;;;;;42.25;33.30;;;;;;;;;;5021492;28;20052;-60
2022/04/23 04:21:06;;;;;;;41.30;32.85;;;;;;;;;;5026578;28;20087;-60
2022/04/23 04:23:32;;;;;;;39.53;32.58;;;;;;;;;;5022061;28;20455;-60
2022/04/23 04:25:58;;;;;;;42.33;33.45;;;;;;;;;;5022158;28;20045;-58
2022/04/23 04:28:24;;;;;;;41.15;32.65;;;;;;;;;;5021976;28;20088;-56
2022/04/23 04:33:36;;;;;;;42.58;33.90;;;;;;;;;;5017821;28;20115;-56
2022/04/23 04:36:02;;;;;;;40.63;32.60;;;;;;;;;;5025938;28;20025;-61
2022/04/23 04:38:27;;;;;;;38.28;32.45;;;;;;;;;;5025853;28;20025;-60
2022/04/23 04:40:54;;;;;;;40.17;33.40;;;;;;;;;;5026132;28;20029;-58
2022/04/23 04:43:20;;;;;;;38.25;32.17;;;;;;;;;;5025410;28;20034;-60
2022/04/23 04:45:46;;;;;;;41.08;32.40;;;;;;;;;;5021753;28;20041;-59
2022/04/23 04:48:12;;;;;;;42.13;33.60;;;;;;;;;;5025690;28;20041;-59
2022/04/23 04:50:38;;;;;;;39.03;32.78;;;;;;;;;;5023746;28;20030;-61
2022/04/23 04:53:04;;;;;;;41.42;33.53;;;;;;;;;;5025730;28;20033;-60
2022/04/23 04:55:30;;;;;;;38.83;32.63;;;;;;;;;;5025306;28;20030;-60
2022/04/23 04:57:56;;;;;;;42.88;32.28;;;;;;;;;;5025668;28;20048;-59
2022/04/23 05:00:22;;;;;;;39.92;32.80;;;;;;;;;;5023241;28;20029;-58
2022/04/23 05:02:47;;;;;;;42.75;33.08;;;10.80;99.90;;;;;;5024663;28;20411;-59
2022/04/23 05:05:13;;;;;;;37.92;31.38;;;10.70;99.90;;;;;;5024661;28;20397;-58
2022/04/23 05:07:38;;;;;;;39.05;32.30;;;10.80;99.90;;;;;;5031151;28;20014;-62
2022/04/23 05:10:04;;;;;;;44.13;32.63;;;10.80;99.90;;;;;;5020410;28;20280;-58
2022/04/23 05:12:30;;;;;;;40.75;32.53;;;10.80;99.90;;;;;;5025970;28;20037;-56
2022/04/23 05:14:56;;;;;;;37.67;31.70;;;10.70;99.90;;;;;;5027619;28;20036;-60
2022/04/23 05:17:21;;;;;;;38.42;31.70;;;10.80;99.90;;;;;;5019802;28;20060;-60
2022/04/23 05:19:47;;;;;;;36.55;31.10;;;10.80;99.90;;;;;;5025054;28;20746;-60
2022/04/23 05:22:12;;;;;;;41.55;33.05;;;10.90;99.90;;;;;;5025376;28;20033;-59
2022/04/23 05:24:38;;;;;;;38.45;31.65;;;11.00;99.90;;;;;;5022507;28;20305;-59
2022/04/23 05:27:04;;;;;;;39.42;31.67;;;10.90;99.90;;;;;;5022964;28;20071;-59
2022/04/23 05:29:29;;;;;;;36.97;31.50;;;10.80;99.90;;;;;;5023614;28;20463;-61
2022/04/23 05:31:55;;;;;;;38.80;32.05;;;11.00;99.90;;;;;;5023781;28;20052;-60
2022/04/23 05:34:20;;;;;;;38.28;32.72;;;11.10;99.90;;;;;;5022591;28;20448;-62
2022/04/23 05:36:46;;;;;;;36.30;32.10;;;11.20;99.90;;;;;;5024073;28;20649;-59
2022/04/23 05:39:11;;;;;;;38.17;31.60;;;11.30;99.90;;;;;;5022992;28;20140;-60
2022/04/23 05:41:37;;;;;;;36.95;31.42;;;11.30;99.90;;;;;;5026968;28;20485;-57
2022/04/23 05:44:03;;;;;;;37.78;31.30;;;11.40;99.90;;;;;;5023369;28;20026;-58
2022/04/23 05:46:28;;;;;;;35.92;31.23;;;11.40;99.90;;;;;;5027566;28;20091;-59
2022/04/23 05:48:55;;;;;;;39.38;32.13;;;11.50;99.90;;;;;;5023411;28;20035;-59
2022/04/23 05:51:21;;;;;;;40.38;31.63;;;11.40;99.90;;;;;;5026162;28;20029;-61
2022/04/23 05:53:46;;;;;;;35.30;31.45;;;11.40;99.90;;;;;;5021897;28;20051;-60
2022/04/23 05:56:12;;;;;;;37.67;31.42;;;11.50;99.90;;;;;;5026656;28;20036;-59
2022/04/23 05:58:38;;;;;;;37.45;31.98;;;11.60;99.90;;;;;;5022761;28;20017;-60
2022/04/23 06:01:04;;;;;;;39.38;31.40;;;11.60;99.90;;;;;;5022241;28;20037;-60
2022/04/23 06:03:30;;;;;;;35.80;31.30;;;11.60;99.90;;;;;;5028304;28;20029;-60
2022/04/23 06:05:55;;;;;;;35.72;31.40;;;11.60;99.90;;;;;;5022044;28;20366;-61
2022/04/23 06:08:21;;;;;;;36.47;31.38;;;11.80;99.90;;;;;;5029014;28;20052;-60
2022/04/23 06:10:47;;;;;;;36.03;30.38;;;11.90;99.90;;;;;;5019455;28;20032;-57
2022/04/23 06:13:13;;;;;;;36.78;31.55;;;11.80;99.90;;;;;;5022994;28;20036;-59
2022/04/23 06:15:38;;;;;;;34.60;30.42;;;12.00;99.90;;;;;;5024214;28;20087;-60
2022/04/23 06:18:04;;;;;;;38.03;30.13;;;12.10;99.90;;;;;;5023300;28;20013;-61
2022/04/23 06:20:30;;;;;;;34.22;28.98;;;12.20;99.90;;;;;;5025458;28;20029;-61
2022/04/23 06:22:55;;;;;;;35.30;29.85;;;12.20;99.90;;;;;;5022666;28;20028;-59
2022/04/23 06:25:21;;;;;;;35.22;29.83;;;12.20;99.90;;;;;;5018669;28;102987;-56
2022/04/23 06:27:47;;;;;;;34.92;29.70;;;12.20;99.90;;;;;;5020127;28;20505;-61
2022/04/23 06:30:13;;;;;;;36.47;29.33;;;12.30;99.90;;;;;;5025139;28;20052;-61
2022/04/23 06:32:39;;;;;;;32.03;28.52;;;12.40;99.90;;;;;;5023210;28;20149;-60
2022/04/23 06:35:06;;;;;;;32.97;29.38;;;12.30;99.90;;;;;;5021241;28;20488;-59
2022/04/23 06:37:37;;;;;;;32.17;27.75;;;12.40;99.90;;;;;;5016894;28;20029;-57
2022/04/23 06:40:03;;;;;;;33.45;28.33;;;12.50;99.90;;;;;;5016668;28;20252;-61
2022/04/23 06:42:29;;;;;;;34.13;28.75;;;12.60;99.90;;;;;;5027619;28;20125;-60
2022/04/23 06:44:54;;;;;;;31.30;27.85;;;12.70;99.90;;;;;;5023066;28;20021;-57
2022/04/23 06:47:20;;;;;;;31.27;27.65;;;12.80;99.90;;;;;;5023700;28;20073;-61
2022/04/23 06:49:45;;;;;;;34.17;28.38;;;12.80;99.90;;;;;;5029010;28;20119;-59
2022/04/23 06:52:11;;;;;;;32.50;27.98;;;12.80;99.90;;;;;;5023422;28;20026;-61
2022/04/23 06:54:37;;;;;;;31.73;24.95;;;12.80;99.90;;;;;;5029267;28;20036;-60
2022/04/23 06:57:02;;;;;;;30.50;27.02;;;12.80;99.90;;;;;;5023424;28;20025;-60
2022/04/23 06:59:28;;;;;;;30.58;26.70;;;12.80;99.90;;;;;;5027869;28;20492;-58
2022/04/23 07:01:53;;;;;;;33.58;26.42;;;13.00;99.90;;;;;;5021963;28;20032;-59
2022/04/23 07:04:19;;;;;;;29.27;26.08;;;13.00;99.90;;;;;;5023196;28;20025;-58
2022/04/23 07:06:45;;;;;;;29.33;25.77;;;13.00;99.90;;;;;;5022320;28;20473;-61
2022/04/23 07:09:10;;;;;;;30.95;26.02;;;13.10;99.90;;;;;;5026570;28;20516;-62
2022/04/23 07:11:36;;;;;;;28.15;25.20;;;13.20;99.90;;;;;;5021655;28;20384;-58
2022/04/23 07:14:01;;;;;;;28.65;24.15;;;13.20;99.90;;;;;;5023028;28;20033;-61
2022/04/23 07:16:27;;;;;;;30.38;24.45;;;13.40;99.90;;;;;;5024698;28;20034;-59
2022/04/23 07:18:53;;;;;;;27.92;24.23;;;13.40;99.90;;;;;;5027199;28;20024;-60
2022/04/23 07:21:20;;;;;;;30.80;23.85;;;13.50;99.90;;;;;;5022870;28;20393;-60
2022/04/23 07:24:04;;;;;;;26.67;22.35;;;13.70;99.90;;;;;;5026136;28;20547;-58
2022/04/23 07:26:31;;;;;;;25.73;22.58;;;13.60;99.90;;;;;;5023955;28;20045;-61
2022/04/23 07:28:57;;;;;;;28.23;23.15;;;13.80;99.90;;;;;;5025346;28;20013;-60
2022/04/23 07:31:23;;;;;;;27.33;23.77;;;13.80;99.90;;;;;;5022421;28;20029;-58
2022/04/23 07:39:17;;;;;;;28.55;23.02;;;14.10;99.90;;;;;;5019683;28;20056;-58
2022/04/23 07:41:43;;;;;;;27.27;22.38;;;14.10;99.90;;;;;;5026991;28;20029;-61
2022/04/23 07:44:09;;;;;;;26.13;22.65;;;14.00;99.90;;;;;;5017260;28;20029;-60
2022/04/23 07:46:35;;;;;;;28.58;22.85;;;14.20;99.90;;;;;;5027640;28;20025;-59
2022/04/23 07:49:01;;;;;;;30.75;23.55;;;14.30;99.90;;;;;;5027864;28;20033;-60
2022/04/23 07:51:27;;;;;;;28.20;23.33;;;14.40;99.90;;;;;;5025530;28;20519;-60
2022/04/23 07:53:55;;;;;;;25.13;21.35;;;14.50;99.90;;;;;;5022403;28;20045;-59
2022/04/23 07:56:22;;;;;;;26.13;21.50;;;14.60;99.90;;;;;;5026558;28;20072;-59
2022/04/23 07:58:48;;;;;;;25.92;21.58;;;14.60;99.90;;;;;;5022185;28;20057;-59
2022/04/23 08:01:13;;;;;;;25.30;21.80;;;14.70;99.90;;;;;;5031165;28;20061;-61
2022/04/23 08:03:39;;;;;;;24.83;21.33;;;14.70;99.90;;;;;;5022320;28;20033;-60
2022/04/23 08:06:04;;;;;;;24.00;21.10;;;14.70;99.90;;;;;;5024903;28;20097;-58
2022/04/23 08:08:30;;;;;;;25.50;22.42;;;14.80;99.90;;;;;;5019647;28;20042;-60
2022/04/23 08:10:55;;;;;;;27.40;21.08;;;14.90;99.90;;;;;;5019213;28;20033;-60
2022/04/23 08:13:21;;;;;;;27.65;22.20;;;15.00;99.90;;;;;;5031073;28;20048;-59
2022/04/23 08:15:46;;;;;;;25.33;21.77;;;15.00;99.90;;;;;;5024117;28;20056;-59
2022/04/23 08:18:12;;;;;;;23.40;20.08;;;15.00;99.90;;;;;;5022362;28;20029;-59
2022/04/23 08:20:41;;;;;;;23.08;20.67;;;15.00;99.90;;;;;;5023699;28;20096;-59
2022/04/23 08:23:07;;;;;;;27.05;22.08;;;15.00;99.90;;;;;;5024947;28;20028;-59
2022/04/23 08:25:33;;;;;;;24.70;20.35;;;15.10;99.90;;;;;;5021651;28;20128;-59
2022/04/23 08:30:42;;;;;;;22.98;19.38;;;15.30;99.90;;;;;;5023881;28;20113;-60
2022/04/23 08:33:08;;;;;;;25.17;20.00;;;15.40;99.90;;;;;;5024366;28;20113;-59
2022/04/23 08:35:35;;;;;;;27.15;21.15;;;15.30;99.90;;;;;;5022094;28;20061;-61
2022/04/23 08:38:01;;;;;;;23.67;20.25;;;15.30;99.90;;;;;;5025990;28;20280;-59
2022/04/23 08:40:29;;;;;;;22.88;19.83;;;15.40;99.90;;;;;;5022625;28;20017;-60
2022/04/23 08:42:56;;;;;;;24.27;20.33;;;15.50;99.90;;;;;;5023860;28;20065;-61
2022/04/23 08:45:22;;;;;;;23.83;21.33;;;15.40;99.90;;;;;;5021182;28;20026;-60
2022/04/23 08:47:50;;;;;;;23.05;20.05;;;15.50;99.90;;;;;;5024464;28;20045;-60
2022/04/23 08:50:17;;;;;;;21.85;19.40;;;15.60;99.90;;;;;;5021678;28;20064;-60
2022/04/23 08:52:51;;;;;;;23.73;19.80;;;15.70;99.90;;;;;;5025350;28;20129;-59
2022/04/23 08:55:18;;;;;;;22.30;19.85;;;15.70;99.90;;;;;;5025702;28;20025;-60
2022/04/23 08:57:47;;;;;;;23.00;19.08;;;15.80;99.90;;;;;;5022298;28;20029;-60
2022/04/23 09:00:14;;;;;;;24.35;20.05;;;15.80;99.90;;;;;;5021173;28;20450;-60
2022/04/23 09:02:40;;;;;;;23.17;20.67;;;15.80;99.90;;;;;;5023866;28;20030;-59
2022/04/23 09:05:07;;;;;;;22.17;19.48;;;15.90;99.90;;;;;;5019226;28;20602;-60
2022/04/23 09:07:32;;;;;;;20.52;18.33;;;15.90;99.90;;;;;;5035173;28;20496;-58
2022/04/23 09:09:58;;;;;;;22.05;19.67;;;15.90;99.90;;;;;;5020141;28;20022;-61
2022/04/23 09:12:26;;;;;;;24.80;20.30;;;16.00;99.90;;;;;;5019064;28;20543;-58
2022/04/23 09:14:53;;;;;;;25.40;20.98;;;16.00;99.90;;;;;;5020234;28;20079;-57
2022/04/23 09:25:45;;;;;;;22.35;19.40;;;16.10;99.90;;;;;;5021718;28;20366;-59
2022/04/23 09:28:21;;;;;;;24.70;20.85;;;16.30;99.90;;;;;;5028945;28;20547;-60
2022/04/23 09:30:48;;;;;;;24.65;20.52;;;16.30;99.90;;;;;;5022805;28;20281;-58
2022/04/23 09:33:14;;;;;;;23.63;21.10;;;16.30;99.90;;;;;;5021282;28;20033;-60
2022/04/23 09:36:03;;;;;;;24.42;20.80;;;16.40;99.90;;;;;;5024337;28;20025;-59
2022/04/23 09:38:31;;;;;;;24.73;20.23;;;16.50;99.90;;;;;;5019429;28;20060;-58
2022/04/23 09:41:15;;;;;;;22.00;19.67;;;16.50;99.90;;;;;;5019187;28;20235;-58
2022/04/23 09:43:42;;;;;;;22.48;20.05;;;16.50;99.90;;;;;;5020109;28;20021;-60
2022/04/23 09:46:08;;;;;;;23.35;19.55;;;16.60;99.90;;;;;;5029486;28;20140;-57
2022/04/23 09:48:45;;;;;;;20.08;16.92;;;16.70;99.90;;;;;;5022642;28;20029;-59
2022/04/23 09:51:28;;;;;;;19.83;15.18;;;16.90;99.90;;;;;;5023626;28;20736;-61
2022/04/23 09:53:55;;;;;;;16.88;14.93;;;16.90;99.90;;;;;;5023041;28;20108;-60
2022/04/23 09:56:22;;;;;;;17.10;15.02;;;17.00;99.90;;;;;;5022227;28;20087;-60
2022/04/23 09:58:48;;;;;;;15.85;14.15;;;17.10;99.90;;;;;;5022099;28;20053;-59
2022/04/23 10:01:16;;;;;;;16.85;13.75;;;17.20;99.90;;;;;;5020254;28;20049;-59
2022/04/23 10:03:46;;;;;;;15.20;13.60;;;17.20;99.90;;;;;;5023832;28;20538;-60
2022/04/23 10:06:14;;;;;;;17.98;14.95;;;17.10;99.90;;;;;;5020134;28;20436;-59
2022/04/23 10:08:45;;;;;;;21.02;13.02;;;17.20;99.90;;;;;;5023404;28;20036;-59
2022/04/23 10:11:22;;;;;;;22.90;13.55;;;17.50;99.90;;;;;;5023393;28;20045;-58
2022/04/23 10:14:11;;;;;;;13.68;12.32;;;17.60;99.90;;;;;;5023002;28;20478;-58
2022/04/23 10:16:39;;;;;;;17.70;13.30;;;17.50;99.90;;;;;;5020523;28;20057;-61
2022/04/23 10:19:07;;;;;;;14.77;12.48;;;17.50;99.90;;;;;;5023219;28;20036;-60
2022/04/23 10:21:39;;;;;;;14.73;12.48;;;17.50;99.90;;;;;;5023542;28;20574;-62
2022/04/23 10:24:31;;;;;;;16.13;12.40;;;17.30;99.90;;;;;;5022715;28;20033;-59
2022/04/23 10:27:07;;;;;;;16.00;12.25;;;17.30;99.90;;;;;;5022904;28;20037;-59
2022/04/23 10:29:34;;;;;;;13.18;11.77;;;17.40;99.90;;;;;;5017165;28;20037;-59
2022/04/23 10:32:12;;;;;;;15.52;12.68;;;17.50;99.90;;;;;;5030467;28;20041;-59
2022/04/23 10:34:40;;;;;;;20.15;12.35;;;17.50;99.90;;;;;;5025678;28;20355;-59
2022/04/23 10:37:19;;;;;;;14.13;11.40;;;17.50;99.90;;;;;;5023082;28;20341;-61
2022/04/23 10:40:05;;;;;;;16.70;11.73;;;17.30;99.90;;;;;;5019729;28;20045;-59
2022/04/23 10:42:32;;;;;;;13.25;10.98;;;17.40;99.90;;;;;;5017334;28;20087;-58
2022/04/23 10:45:06;;;;;;;12.38;10.75;;;17.50;99.90;;;;;;5023150;28;20428;-60
2022/04/23 10:47:39;;;;;;;14.70;11.45;;;17.60;99.90;;;;;;5022510;28;20040;-59
2022/04/23 10:50:19;;;;;;;15.80;10.88;;;17.80;99.90;;;;;;5022998;28;20120;-59
2022/04/23 10:52:46;;;;;;;14.60;9.77;;;17.70;99.90;;;;;;5022475;28;20021;-61
2022/04/23 10:55:15;;;;;;;11.20;9.25;;;17.70;99.90;;;;;;5022923;28;20397;-58
2022/04/23 10:57:51;;;;;;;13.13;9.57;;;17.80;99.90;;;;;;5022080;28;20037;-59
2022/04/23 11:00:19;;;;;;;12.30;10.32;;;17.80;99.90;;;;;;5022766;28;20026;-60
2022/04/23 11:03:05;;;;;;;10.25;8.82;;;17.70;99.90;;;;;;5022741;28;20033;-58
2022/04/23 11:14:41;;;;;;;14.05;9.60;;;18.10;99.90;;;;;;5022377;28;20120;-58
2022/04/23 11:17:14;;;;;;;11.73;9.73;;;18.00;99.90;;;;;;5022035;28;20120;-59
2022/04/23 11:19:43;;;;;;;11.23;9.27;;;18.00;99.90;;;;;;5025393;28;20476;-59
2022/04/23 11:22:12;;;;;;;9.50;8.50;;;18.00;99.90;;;;;;5015002;28;20048;-59
2022/04/23 11:24:39;;;;;;;9.70;8.50;;;18.20;99.90;;;;;;5022835;28;20045;-59
2022/04/23 11:27:04;;;;;;;14.13;8.32;;;18.40;99.90;;;;;;5022399;28;20404;-60
2022/04/23 11:29:30;;;;;;;10.50;8.30;;;18.30;99.90;;;;;;5021221;28;20025;-59
2022/04/23 11:31:56;;;;;;;9.48;8.00;;;18.30;99.90;;;;;;5021825;28;20048;-61
2022/04/23 11:34:22;;;;;;;10.20;8.35;;;18.30;99.90;;;;;;5025617;28;20053;-58
2022/04/23 11:36:49;;;;;;;10.88;8.55;;;18.30;99.90;;;;;;5024182;28;20144;-59
2022/04/23 11:39:14;;;;;;;10.32;8.80;;;18.20;99.90;;;;;;5024660;28;20033;-59
2022/04/23 11:41:48;;;;;;;10.68;7.88;;;18.20;99.90;;;;;;5020772;28;20060;-61
2022/04/23 11:44:15;;;;;;;10.90;8.77;;;18.30;99.90;;;;;;5019106;28;20033;-59
2022/04/23 11:46:42;;;;;;;9.35;8.13;;;18.40;99.90;;;;;;5021759;28;20345;-58
2022/04/23 11:49:08;;;;;;;9.90;8.50;;;18.50;99.90;;;;;;5022804;28;20585;-58
2022/04/23 11:51:33;;;;;;;9.63;8.50;;;18.60;99.90;;;;;;5021251;28;20214;-60
2022/04/23 11:54:00;;;;;;;10.10;7.95;;;18.60;99.90;;;;;;5022049;28;20046;-59
2022/04/23 11:56:28;;;;;;;11.05;8.38;;;18.70;99.90;;;;;;5027082;28;20026;-61
2022/04/23 11:59:00;;;;;;;9.23;8.20;;;18.70;99.90;;;;;;5019757;28;20026;-59
2022/04/23 12:01:26;;;;;;;9.23;8.05;;;18.80;99.90;;;;;;5021669;28;20033;-59
2022/04/23 12:03:54;;;;;;;9.35;7.75;;;18.80;99.90;;;;;;5020865;28;20075;-59
2022/04/23 12:06:21;;;;;;;8.63;7.47;;;18.90;99.90;;;;;;5025968;28;20594;-60
2022/04/23 12:08:47;;;;;;;9.00;7.70;;;18.80;99.90;;;;;;5021267;28;20018;-59
2022/04/23 12:11:28;;;;;;;8.13;7.10;;;18.90;99.90;;;;;;5022241;28;20033;-59
2022/04/23 12:13:55;;;;;;;9.27;8.38;;;18.90;99.90;;;;;;5021219;28;20033;-61
2022/04/23 12:16:36;;;;;;;12.65;9.35;;;18.80;99.90;;;;;;5021571;28;20501;-60
2022/04/23 12:19:13;;;;;;;11.40;9.70;;;18.80;99.90;;;;;;5021653;28;20406;-56
2022/04/23 12:21:39;;;;;;;15.27;10.15;;;18.80;99.90;;;;;;5021249;28;20028;-60
2022/04/23 12:24:07;;;;;;;12.77;9.65;;;18.80;99.90;;;;;;5026328;28;20460;-61
2022/04/23 12:26:38;;;;;;;10.02;8.27;;;18.80;99.90;;;;;;5022733;28;20524;-60
2022/04/23 12:43:20;;;;;;;11.52;9.57;;;19.00;99.90;;;;;;5021412;28;20041;-60
2022/04/23 12:45:46;;;;;;;9.95;8.95;;;19.10;99.90;;;;;;5021069;28;20028;-58
2022/04/23 12:48:12;;;;;;;10.38;9.25;;;19.00;99.90;;;;;;5020388;28;20120;-60
2022/04/23 12:50:38;;;;;;;11.35;9.77;;;19.10;99.90;;;;;;5022154;28;20037;-60
2022/04/23 12:53:04;;;;;;;10.70;9.60;;;19.10;99.90;;;;;;5023191;28;20029;-60
2022/04/23 12:55:36;;;;;;;10.05;8.30;;;19.00;99.90;;;;;;5023983;28;20025;-60
2022/04/23 12:58:08;;;;;;;10.68;9.45;;;19.20;99.90;;;;;;5027365;28;20516;-58
2022/04/23 13:00:40;;;;;;;15.35;10.30;;;19.10;99.90;;;;;;5023297;28;20018;-60
2022/04/23 13:03:34;;;;;;;12.45;10.07;;;18.80;99.90;;;;;;5025802;28;20025;-60
2022/04/23 13:06:01;;;;;;;14.10;10.20;;;18.60;99.90;;;;;;5025227;28;20458;-60
2022/04/23 13:14:00;;;;;;;11.63;10.00;;;18.40;99.90;;;;;;5031433;28;20032;-61
2022/04/23 13:16:28;;;;;;;14.55;11.50;;;18.40;99.90;;;;;;5020589;28;20032;-59
2022/04/23 13:18:55;;;;;;;13.05;11.43;;;18.20;99.90;;;;;;5018248;28;20045;-58
2022/04/23 13:21:23;;;;;;;12.15;9.55;;;18.20;99.90;;;;;;5023997;28;20032;-57
2022/04/23 13:23:51;;;;;;;12.13;9.80;;;18.20;99.90;;;;;;5030146;28;20030;-61
2022/04/23 13:26:16;;;;;;;13.70;10.80;;;18.20;99.90;;;;;;5024395;28;20048;-57
2022/04/23 13:28:42;;;;;;;12.30;10.50;;;18.30;99.90;;;;;;5029485;28;20021;-62
2022/04/23 13:31:09;;;;;;;12.60;10.80;;;18.50;99.90;;;;;;5024111;28;20321;-61
2022/04/23 13:33:34;;;;;;;12.30;10.45;;;18.50;99.90;;;;;;5024816;28;20617;-60
2022/04/23 13:36:00;;;;;;;13.38;10.23;;;18.60;99.90;;;;;;5024309;28;20030;-59
2022/04/23 13:38:25;;;;;;;11.20;10.00;;;18.70;99.90;;;;;;5030053;28;20033;-59
2022/04/23 13:40:51;;;;;;;11.95;9.43;;;18.70;99.90;;;;;;5026292;28;20061;-60
2022/04/23 13:43:17;;;;;;;9.75;8.75;;;18.80;99.90;;;;;;5026891;28;20672;-60
2022/04/23 13:45:44;;;;;;;9.40;8.15;;;18.80;99.90;;;;;;5024233;28;20021;-61
2022/04/23 13:48:10;;;;;;;9.18;7.47;;;18.80;99.90;;;;;;5024252;28;20021;-60
2022/04/23 13:50:36;;;;;;;9.68;8.10;;;18.80;99.90;;;;;;5025337;28;20241;-59
2022/04/23 13:53:01;;;;;;;9.90;8.57;;;18.80;99.90;;;;;;5025508;28;20088;-59
2022/04/23 13:55:27;;;;;;;10.10;8.38;;;18.70;99.90;;;;;;5023927;28;20033;-59
2022/04/23 13:57:53;;;;;;;10.05;8.35;;;18.70;99.90;;;;;;5027266;28;20025;-62